sensor_id;sensor_type;location;lat;lon;timestamp;pressure;altitude;pressure_sealevel;temperature;humidity
5500;BME280;2772;42.700;23.304;2023-07-13T00:02:05;95371.34;;;25.45;100.00
5500;BME280;2772;42.700;23.304;2023-07-13T00:04:32;95369.03;;;25.43;100.00
5500;BME280;2772;42.700;23.304;2023-07-13T00:06:59;95366.28;;;25.43;100.00
5500;BME280;2772;42.700;23.304;2023-07-13T00:09:25;95367.06;;;25.40;100.00
5500;BME280;2772;42.700;23.304;2023-07-13T00:11:54;95367.44;;;25.46;100.00
5500;BME280;2772;42.700;23.304;2023-07-13T00:14:22;95367.84;;;25.37;100.00
5500;BME280;2772;42.700;23.304;2023-07-13T00:16:49;95356.94;;;25.37;100.00
5500;BME280;2772;42.700;23.304;2023-07-13T00:19:17;95370.97;;;25.39;100.00
5500;BME280;2772;42.700;23.304;2023-07-13T00:21:44;95356.56;;;25.35;100.00
5500;BME280;2772;42.700;23.304;2023-07-13T00:24:12;95359.28;;;25.28;100.00
5500;BME280;2772;42.700;23.304;2023-07-13T00:26:40;95354.59;;;25.25;100.00
5500;BME280;2772;42.700;23.304;2023-07-13T00:29:11;95350.72;;;25.23;100.00
5500;BME280;2772;42.700;23.304;2023-07-13T00:31:37;95358.13;;;25.22;100.00
5500;BME280;2772;42.700;23.304;2023-07-13T00:34:04;95354.25;;;25.20;100.00
5500;BME280;2772;42.700;23.304;2023-07-13T00:36:32;95341.41;;;25.13;100.00
5500;BME280;2772;42.700;23.304;2023-07-13T00:38:59;95352.31;;;25.06;100.00
5500;BME280;2772;42.700;23.304;2023-07-13T00:41:26;95351.94;;;24.97;100.00
5500;BME280;2772;42.700;23.304;2023-07-13T00:43:53;95348.06;;;24.94;100.00
5500;BME280;2772;42.700;23.304;2023-07-13T00:46:23;95348.47;;;24.79;100.00
5500;BME280;2772;42.700;23.304;2023-07-13T00:48:51;95350.78;;;24.80;100.00
5500;BME280;2772;42.700;23.304;2023-07-13T00:51:24;95355.47;;;24.83;100.00
5500;BME280;2772;42.700;23.304;2023-07-13T00:53:54;95346.13;;;24.74;100.00
5500;BME280;2772;42.700;23.304;2023-07-13T00:56:23;95344.13;;;24.64;100.00
5500;BME280;2772;42.700;23.304;2023-07-13T00:58:50;95338.69;;;24.57;100.00
5500;BME280;2772;42.700;23.304;2023-07-13T01:01:17;95349.22;;;24.69;100.00
5500;BME280;2772;42.700;23.304;2023-07-13T01:03:44;95341.03;;;24.65;100.00
5500;BME280;2772;42.700;23.304;2023-07-13T01:06:12;95334.81;;;24.61;100.00
5500;BME280;2772;42.700;23.304;2023-07-13T01:08:39;95338.69;;;24.53;100.00
5500;BME280;2772;42.700;23.304;2023-07-13T01:11:07;95348.03;;;24.56;100.00
5500;BME280;2772;42.700;23.304;2023-07-13T01:13:34;95343.34;;;24.42;100.00
5500;BME280;2772;42.700;23.304;2023-07-13T01:16:04;95344.91;;;24.29;100.00
5500;BME280;2772;42.700;23.304;2023-07-13T01:18:33;95343.34;;;24.21;100.00
5500;BME280;2772;42.700;23.304;2023-07-13T01:21:03;95331.69;;;24.24;100.00
5500;BME280;2772;42.700;23.304;2023-07-13T01:23:31;95332.06;;;24.19;100.00
5500;BME280;2772;42.700;23.304;2023-07-13T01:25:59;95328.94;;;24.14;100.00
5500;BME280;2772;42.700;23.304;2023-07-13T01:28:28;95337.13;;;24.28;100.00
5500;BME280;2772;42.700;23.304;2023-07-13T01:30:57;95330.91;;;24.31;100.00
5500;BME280;2772;42.700;23.304;2023-07-13T01:33:25;95330.53;;;24.29;100.00
5500;BME280;2772;42.700;23.304;2023-07-13T01:35:52;95331.28;;;24.29;100.00
5500;BME280;2772;42.700;23.304;2023-07-13T01:38:22;95334.41;;;24.31;100.00
5500;BME280;2772;42.700;23.304;2023-07-13T01:40:49;95332.44;;;24.25;100.00
5500;BME280;2772;42.700;23.304;2023-07-13T01:43:16;95331.28;;;24.19;100.00
5500;BME280;2772;42.700;23.304;2023-07-13T01:45:43;95334.00;;;24.19;100.00
5500;BME280;2772;42.700;23.304;2023-07-13T01:48:11;95330.50;;;24.15;100.00
5500;BME280;2772;42.700;23.304;2023-07-13T01:50:38;95335.16;;;24.14;100.00
5500;BME280;2772;42.700;23.304;2023-07-13T01:53:05;95323.88;;;24.16;100.00
5500;BME280;2772;42.700;23.304;2023-07-13T01:55:33;95334.00;;;24.15;100.00
5500;BME280;2772;42.700;23.304;2023-07-13T01:58:01;95332.06;;;24.19;100.00
5500;BME280;2772;42.700;23.304;2023-07-13T02:00:27;95330.13;;;24.20;100.00
5500;BME280;2772;42.700;23.304;2023-07-13T02:02:55;95339.84;;;24.21;100.00
5500;BME280;2772;42.700;23.304;2023-07-13T02:05:21;95339.84;;;24.21;100.00
5500;BME280;2772;42.700;23.304;2023-07-13T02:07:48;95343.34;;;24.21;100.00
5500;BME280;2772;42.700;23.304;2023-07-13T02:10:16;95339.84;;;24.21;100.00
5500;BME280;2772;42.700;23.304;2023-07-13T02:12:44;95343.75;;;24.20;100.00
5500;BME280;2772;42.700;23.304;2023-07-13T02:15:11;95340.59;;;24.11;100.00
5500;BME280;2772;42.700;23.304;2023-07-13T02:17:38;95334.00;;;24.12;100.00
5500;BME280;2772;42.700;23.304;2023-07-13T02:20:06;95343.28;;;23.97;100.00
5500;BME280;2772;42.700;23.304;2023-07-13T02:22:33;95351.84;;;23.99;100.00
5500;BME280;2772;42.700;23.304;2023-07-13T02:25:00;95339.00;;;23.96;100.00
5500;BME280;2772;42.700;23.304;2023-07-13T02:27:27;95353.78;;;23.98;100.00
5500;BME280;2772;42.700;23.304;2023-07-13T02:29:55;95353.38;;;23.93;100.00
5500;BME280;2772;42.700;23.304;2023-07-13T02:32:22;95351.78;;;23.78;100.00
5500;BME280;2772;42.700;23.304;2023-07-13T02:34:50;95340.53;;;23.90;100.00
5500;BME280;2772;42.700;23.304;2023-07-13T02:37:17;95348.69;;;23.79;100.00
5500;BME280;2772;42.700;23.304;2023-07-13T02:39:44;95345.50;;;23.70;100.00
5500;BME280;2772;42.700;23.304;2023-07-13T02:42:11;95342.81;;;23.67;100.00
5500;BME280;2772;42.700;23.304;2023-07-13T02:44:37;95353.28;;;23.65;100.00
5500;BME280;2772;42.700;23.304;2023-07-13T02:47:06;95348.25;;;23.67;100.00
5500;BME280;2772;42.700;23.304;2023-07-13T02:49:33;95352.53;;;23.71;100.00
5500;BME280;2772;42.700;23.304;2023-07-13T02:51:59;95354.88;;;23.73;100.00
5500;BME280;2772;42.700;23.304;2023-07-13T02:54:26;95352.56;;;23.75;100.00
5500;BME280;2772;42.700;23.304;2023-07-13T02:56:53;95349.81;;;23.75;100.00
5500;BME280;2772;42.700;23.304;2023-07-13T02:59:19;95355.22;;;23.61;100.00
5500;BME280;2772;42.700;23.304;2023-07-13T03:01:46;95355.22;;;23.61;100.00
5500;BME280;2772;42.700;23.304;2023-07-13T03:04:14;95356.78;;;23.65;100.00
5500;BME280;2772;42.700;23.304;2023-07-13T03:06:45;95355.22;;;23.61;100.00
5500;BME280;2772;42.700;23.304;2023-07-13T03:09:11;95362.53;;;23.53;100.00
5500;BME280;2772;42.700;23.304;2023-07-13T03:11:39;95357.13;;;23.50;100.00
5500;BME280;2772;42.700;23.304;2023-07-13T03:14:06;95356.31;;;23.49;100.00
5500;BME280;2772;42.700;23.304;2023-07-13T03:16:33;95364.88;;;23.55;100.00
5500;BME280;2772;42.700;23.304;2023-07-13T03:19:02;95357.50;;;23.52;100.00
5500;BME280;2772;42.700;23.304;2023-07-13T03:21:30;95358.25;;;23.48;100.00
5500;BME280;2772;42.700;23.304;2023-07-13T03:23:57;95360.94;;;23.45;100.00
5500;BME280;2772;42.700;23.304;2023-07-13T03:26:24;95352.06;;;23.52;100.00
5500;BME280;2772;42.700;23.304;2023-07-13T03:28:51;95363.34;;;23.54;100.00
5500;BME280;2772;42.700;23.304;2023-07-13T03:31:20;95359.84;;;23.57;100.00
5500;BME280;2772;42.700;23.304;2023-07-13T03:33:47;95368.81;;;23.61;100.00
5500;BME280;2772;42.700;23.304;2023-07-13T03:36:17;95360.25;;;23.66;100.00
5500;BME280;2772;42.700;23.304;2023-07-13T03:38:47;95373.50;;;23.64;100.00
5500;BME280;2772;42.700;23.304;2023-07-13T03:41:14;95370.38;;;23.65;100.00
5500;BME280;2772;42.700;23.304;2023-07-13T03:43:41;95371.94;;;23.66;100.00
5500;BME280;2772;42.700;23.304;2023-07-13T03:46:08;95371.56;;;23.68;100.00
5500;BME280;2772;42.700;23.304;2023-07-13T03:48:34;95377.41;;;23.70;100.00
5500;BME280;2772;42.700;23.304;2023-07-13T03:51:01;95367.28;;;23.74;100.00
5500;BME280;2772;42.700;23.304;2023-07-13T03:53:28;95371.16;;;23.69;100.00
5500;BME280;2772;42.700;23.304;2023-07-13T03:55:56;95373.91;;;23.80;100.00
5500;BME280;2772;42.700;23.304;2023-07-13T03:58:25;95368.47;;;23.80;100.00
5500;BME280;2772;42.700;23.304;2023-07-13T04:00:53;95366.94;;;23.82;100.00
5500;BME280;2772;42.700;23.304;2023-07-13T04:03:20;95368.16;;;23.92;100.00
5500;BME280;2772;42.700;23.304;2023-07-13T04:05:47;95365.06;;;24.00;100.00
5500;BME280;2772;42.700;23.304;2023-07-13T04:08:14;95359.63;;;23.97;100.00
5500;BME280;2772;42.700;23.304;2023-07-13T04:10:41;95355.38;;;24.03;100.00
5500;BME280;2772;42.700;23.304;2023-07-13T04:13:09;95349.16;;;24.02;100.00
5500;BME280;2772;42.700;23.304;2023-07-13T04:15:36;95358.50;;;24.08;100.00
5500;BME280;2772;42.700;23.304;2023-07-13T04:18:05;95364.72;;;24.16;100.00
5500;BME280;2772;42.700;23.304;2023-07-13T04:20:31;95368.63;;;24.25;100.00
5500;BME280;2772;42.700;23.304;2023-07-13T04:22:58;95381.47;;;24.32;100.00
5500;BME280;2772;42.700;23.304;2023-07-13T04:25:25;95379.56;;;24.43;100.00
5500;BME280;2772;42.700;23.304;2023-07-13T04:27:52;95386.94;;;24.46;100.00
5500;BME280;2772;42.700;23.304;2023-07-13T04:30:23;95388.88;;;24.56;100.00
5500;BME280;2772;42.700;23.304;2023-07-13T04:32:53;95389.69;;;24.56;100.00
5500;BME280;2772;42.700;23.304;2023-07-13T04:35:20;95390.84;;;24.62;100.00
5500;BME280;2772;42.700;23.304;2023-07-13T04:37:47;95390.50;;;24.71;100.00
5500;BME280;2772;42.700;23.304;2023-07-13T04:40:16;95394.41;;;24.77;100.00
5500;BME280;2772;42.700;23.304;2023-07-13T04:42:43;95397.09;;;24.73;100.00
5500;BME280;2772;42.700;23.304;2023-07-13T04:45:10;95392.84;;;24.76;100.00
5500;BME280;2772;42.700;23.304;2023-07-13T04:47:39;95399.44;;;24.78;100.00
5500;BME280;2772;42.700;23.304;2023-07-13T04:50:06;95397.50;;;24.86;100.00
5500;BME280;2772;42.700;23.304;2023-07-13T04:52:34;95405.66;;;24.96;100.00
5500;BME280;2772;42.700;23.304;2023-07-13T04:55:01;95418.91;;;25.05;100.00
5500;BME280;2772;42.700;23.304;2023-07-13T04:57:27;95412.28;;;25.13;100.00
5500;BME280;2772;42.700;23.304;2023-07-13T04:59:54;95425.91;;;25.10;100.00
5500;BME280;2772;42.700;23.304;2023-07-13T05:02:21;95425.94;;;25.03;100.00
5500;BME280;2772;42.700;23.304;2023-07-13T05:04:49;95421.25;;;25.10;100.00
5500;BME280;2772;42.700;23.304;2023-07-13T05:07:16;95413.84;;;25.18;100.00
5500;BME280;2772;42.700;23.304;2023-07-13T05:09:42;95413.06;;;25.21;100.00
5500;BME280;2772;42.700;23.304;2023-07-13T05:12:10;95422.03;;;25.18;100.00
5500;BME280;2772;42.700;23.304;2023-07-13T05:14:36;95418.13;;;25.15;100.00
5500;BME280;2772;42.700;23.304;2023-07-13T05:17:04;95416.56;;;25.14;100.00
5500;BME280;2772;42.700;23.304;2023-07-13T05:19:30;95423.56;;;25.29;100.00
5500;BME280;2772;42.700;23.304;2023-07-13T05:21:58;95409.53;;;25.38;100.00
5500;BME280;2772;42.700;23.304;2023-07-13T05:24:25;95416.94;;;25.48;100.00
5500;BME280;2772;42.700;23.304;2023-07-13T05:26:52;95415.00;;;25.34;100.00
5500;BME280;2772;42.700;23.304;2023-07-13T05:29:20;95419.28;;;25.42;100.00
5500;BME280;2772;42.700;23.304;2023-07-13T05:31:47;95425.91;;;25.31;100.00
5500;BME280;2772;42.700;23.304;2023-07-13T05:34:13;95427.06;;;25.51;100.00
5500;BME280;2772;42.700;23.304;2023-07-13T05:36:40;95432.50;;;25.65;100.00
5500;BME280;2772;42.700;23.304;2023-07-13T05:39:08;95431.31;;;25.66;100.00
5500;BME280;2772;42.700;23.304;2023-07-13T05:41:36;95427.03;;;25.65;100.00
5500;BME280;2772;42.700;23.304;2023-07-13T05:44:03;95420.78;;;25.71;100.00
5500;BME280;2772;42.700;23.304;2023-07-13T05:46:30;95429.31;;;25.80;100.00
5500;BME280;2772;42.700;23.304;2023-07-13T05:48:57;95427.31;;;25.91;100.00
5500;BME280;2772;42.700;23.304;2023-07-13T05:51:24;95442.91;;;26.05;100.00
5500;BME280;2772;42.700;23.304;2023-07-13T05:53:50;95426.50;;;26.08;100.00
5500;BME280;2772;42.700;23.304;2023-07-13T05:56:19;95426.44;;;26.19;100.00
5500;BME280;2772;42.700;23.304;2023-07-13T05:58:47;95418.56;;;26.35;100.00
5500;BME280;2772;42.700;23.304;2023-07-13T06:01:15;95417.66;;;26.56;100.00
5500;BME280;2772;42.700;23.304;2023-07-13T06:03:43;95412.84;;;26.77;100.00
5500;BME280;2772;42.700;23.304;2023-07-13T06:06:10;95418.53;;;26.97;100.00
5500;BME280;2772;42.700;23.304;2023-07-13T06:08:37;95419.31;;;27.01;100.00
5500;BME280;2772;42.700;23.304;2023-07-13T06:11:06;95418.78;;;27.13;100.00
5500;BME280;2772;42.700;23.304;2023-07-13T06:13:34;95430.78;;;27.29;100.00
5500;BME280;2772;42.700;23.304;2023-07-13T06:16:01;95433.13;;;27.31;100.00
5500;BME280;2772;42.700;23.304;2023-07-13T06:18:34;95426.41;;;27.39;100.00
5500;BME280;2772;42.700;23.304;2023-07-13T06:21:06;95420.88;;;27.46;100.00
5500;BME280;2772;42.700;23.304;2023-07-13T06:23:33;95432.91;;;27.52;100.00
5500;BME280;2772;42.700;23.304;2023-07-13T06:26:00;95435.97;;;27.57;100.00
5500;BME280;2772;42.700;23.304;2023-07-13T06:28:26;95437.56;;;27.58;100.00
5500;BME280;2772;42.700;23.304;2023-07-13T06:30:54;95431.97;;;27.69;100.00
5500;BME280;2772;42.700;23.304;2023-07-13T06:33:21;95435.41;;;27.73;100.00
5500;BME280;2772;42.700;23.304;2023-07-13T06:35:48;95431.41;;;27.84;100.00
5500;BME280;2772;42.700;23.304;2023-07-13T06:38:15;95421.16;;;27.92;100.00
5500;BME280;2772;42.700;23.304;2023-07-13T06:40:42;95420.28;;;27.99;100.00
5500;BME280;2772;42.700;23.304;2023-07-13T06:43:11;95420.53;;;28.11;100.00
5500;BME280;2772;42.700;23.304;2023-07-13T06:45:41;95415.44;;;28.13;100.00
5500;BME280;2772;42.700;23.304;2023-07-13T06:48:09;95418.44;;;28.22;100.00
5500;BME280;2772;42.700;23.304;2023-07-13T06:50:36;95425.00;;;28.28;100.00
5500;BME280;2772;42.700;23.304;2023-07-13T06:53:04;95417.47;;;28.36;100.00
5500;BME280;2772;42.700;23.304;2023-07-13T06:55:31;95421.38;;;28.38;100.00
5500;BME280;2772;42.700;23.304;2023-07-13T06:57:58;95421.38;;;28.38;100.00
5500;BME280;2772;42.700;23.304;2023-07-13T07:00:25;95434.16;;;28.45;100.00
5500;BME280;2772;42.700;23.304;2023-07-13T07:02:51;95431.03;;;28.46;100.00
5500;BME280;2772;42.700;23.304;2023-07-13T07:05:22;95425.09;;;28.51;100.00
5500;BME280;2772;42.700;23.304;2023-07-13T07:07:49;95420.28;;;28.59;100.00
5500;BME280;2772;42.700;23.304;2023-07-13T07:10:16;95421.41;;;28.65;100.00
5500;BME280;2772;42.700;23.304;2023-07-13T07:12:43;95430.34;;;28.69;100.00
5500;BME280;2772;42.700;23.304;2023-07-13T07:15:10;95420.25;;;28.62;100.00
5500;BME280;2772;42.700;23.304;2023-07-13T07:17:37;95428.47;;;28.62;100.00
5500;BME280;2772;42.700;23.304;2023-07-13T07:20:05;95418.97;;;28.70;100.00
5500;BME280;2772;42.700;23.304;2023-07-13T07:22:33;95419.38;;;28.69;98.70
5500;BME280;2772;42.700;23.304;2023-07-13T07:25:00;95415.00;;;28.71;98.82
5500;BME280;2772;42.700;23.304;2023-07-13T07:27:27;95413.72;;;28.79;100.00
5500;BME280;2772;42.700;23.304;2023-07-13T07:29:53;95416.00;;;28.84;98.29
5500;BME280;2772;42.700;23.304;2023-07-13T07:32:20;95410.88;;;28.86;98.03
5500;BME280;2772;42.700;23.304;2023-07-13T07:34:47;95402.88;;;28.95;100.00
5500;BME280;2772;42.700;23.304;2023-07-13T07:37:14;95403.13;;;29.04;96.96
5500;BME280;2772;42.700;23.304;2023-07-13T07:39:42;95395.53;;;29.15;97.63
5500;BME280;2772;42.700;23.304;2023-07-13T07:42:09;95399.59;;;29.30;98.52
5500;BME280;2772;42.700;23.304;2023-07-13T07:44:36;95402.63;;;29.36;95.52
5500;BME280;2772;42.700;23.304;2023-07-13T07:47:03;95391.78;;;29.49;93.80
5500;BME280;2772;42.700;23.304;2023-07-13T07:49:30;95394.00;;;29.57;92.83
5500;BME280;2772;42.700;23.304;2023-07-13T07:51:56;95391.06;;;29.68;91.53
5500;BME280;2772;42.700;23.304;2023-07-13T07:54:23;95378.47;;;29.70;90.96
5500;BME280;2772;42.700;23.304;2023-07-13T07:56:51;95380.97;;;29.81;92.86
5500;BME280;2772;42.700;23.304;2023-07-13T07:59:18;95373.66;;;29.94;94.06
5500;BME280;2772;42.700;23.304;2023-07-13T08:01:45;95377.88;;;29.98;91.30
5500;BME280;2772;42.700;23.304;2023-07-13T08:04:13;95374.56;;;30.07;90.62
5500;BME280;2772;42.700;23.304;2023-07-13T08:06:40;95367.50;;;30.06;88.94
5500;BME280;2772;42.700;23.304;2023-07-13T08:09:06;95362.31;;;30.11;89.89
5500;BME280;2772;42.700;23.304;2023-07-13T08:11:34;95369.19;;;30.19;88.57
5500;BME280;2772;42.700;23.304;2023-07-13T08:14:02;95372.84;;;30.32;88.30
5500;BME280;2772;42.700;23.304;2023-07-13T08:16:29;95367.28;;;30.36;87.01
5500;BME280;2772;42.700;23.304;2023-07-13T08:18:56;95359.72;;;30.40;85.19
5500;BME280;2772;42.700;23.304;2023-07-13T08:21:23;95363.97;;;30.44;84.56
5500;BME280;2772;42.700;23.304;2023-07-13T08:23:50;95351.25;;;30.50;83.46
5500;BME280;2772;42.700;23.304;2023-07-13T08:26:16;95352.84;;;30.48;83.50
5500;BME280;2772;42.700;23.304;2023-07-13T08:28:43;95354.94;;;30.60;82.80
5500;BME280;2772;42.700;23.304;2023-07-13T08:31:11;95346.44;;;30.70;83.82
5500;BME280;2772;42.700;23.304;2023-07-13T08:33:39;95348.28;;;30.77;83.00
5500;BME280;2772;42.700;23.304;2023-07-13T08:36:06;95334.34;;;30.84;83.27
5500;BME280;2772;42.700;23.304;2023-07-13T08:38:33;95335.72;;;30.92;82.79
5500;BME280;2772;42.700;23.304;2023-07-13T08:41:09;95332.59;;;30.90;81.68
5500;BME280;2772;42.700;23.304;2023-07-13T08:43:37;95333.75;;;30.93;79.47
5500;BME280;2772;42.700;23.304;2023-07-13T08:46:08;95334.69;;;31.02;79.60
5500;BME280;2772;42.700;23.304;2023-07-13T08:48:43;95336.88;;;31.07;79.43
5500;BME280;2772;42.700;23.304;2023-07-13T08:51:21;95336.38;;;31.12;78.89
5500;BME280;2772;42.700;23.304;2023-07-13T08:53:52;95329.47;;;31.20;81.26
5500;BME280;2772;42.700;23.304;2023-07-13T08:56:23;95337.88;;;31.29;77.76
5500;BME280;2772;42.700;23.304;2023-07-13T08:58:55;95339.38;;;31.34;78.34
5500;BME280;2772;42.700;23.304;2023-07-13T09:01:27;95357.38;;;31.38;77.20
5500;BME280;2772;42.700;23.304;2023-07-13T09:04:05;95357.28;;;31.26;78.42
5500;BME280;2772;42.700;23.304;2023-07-13T09:06:46;95371.03;;;31.26;78.07
5500;BME280;2772;42.700;23.304;2023-07-13T09:09:22;95371.03;;;31.26;79.07
5500;BME280;2772;42.700;23.304;2023-07-13T09:12:10;95371.97;;;31.35;78.62
5500;BME280;2772;42.700;23.304;2023-07-13T09:14:43;95365.94;;;31.40;77.59
5500;BME280;2772;42.700;23.304;2023-07-13T09:17:16;95370.84;;;31.49;77.83
5500;BME280;2772;42.700;23.304;2023-07-13T09:19:47;95363.69;;;31.51;79.87
5500;BME280;2772;42.700;23.304;2023-07-13T09:22:18;95353.00;;;31.53;80.46
5500;BME280;2772;42.700;23.304;2023-07-13T09:24:54;95369.44;;;31.57;79.31
5500;BME280;2772;42.700;23.304;2023-07-13T09:27:23;95363.38;;;31.62;79.99
5500;BME280;2772;42.700;23.304;2023-07-13T09:30:02;95362.00;;;31.70;80.56
5500;BME280;2772;42.700;23.304;2023-07-13T09:32:34;95362.56;;;31.77;80.73
5500;BME280;2772;42.700;23.304;2023-07-13T09:35:10;95360.88;;;31.83;80.22
5500;BME280;2772;42.700;23.304;2023-07-13T09:37:38;95358.53;;;31.82;77.32
5500;BME280;2772;42.700;23.304;2023-07-13T09:40:24;95353.47;;;31.93;77.74
5500;BME280;2772;42.700;23.304;2023-07-13T09:42:52;95354.06;;;32.00;77.43
5500;BME280;2772;42.700;23.304;2023-07-13T09:45:27;95344.47;;;32.05;76.51
5500;BME280;2772;42.700;23.304;2023-07-13T09:47:59;95340.06;;;32.07;76.83
5500;BME280;2772;42.700;23.304;2023-07-13T09:50:31;95339.53;;;32.12;76.71
5500;BME280;2772;42.700;23.304;2023-07-13T09:52:57;95324.41;;;32.17;76.87
5500;BME280;2772;42.700;23.304;2023-07-13T09:55:27;95325.84;;;32.21;77.12
5500;BME280;2772;42.700;23.304;2023-07-13T09:57:55;95332.59;;;32.33;77.28
5500;BME280;2772;42.700;23.304;2023-07-13T10:00:26;95327.22;;;32.42;74.71
5500;BME280;2772;42.700;23.304;2023-07-13T10:03:02;95315.63;;;32.47;75.62
5500;BME280;2772;42.700;23.304;2023-07-13T10:05:39;95310.66;;;32.55;53.31
5500;BME280;2772;42.700;23.304;2023-07-13T10:08:16;95311.97;;;32.63;52.00
5500;BME280;2772;42.700;23.304;2023-07-13T10:10:45;95306.44;;;32.75;48.43
5500;BME280;2772;42.700;23.304;2023-07-13T10:13:27;95304.09;;;32.86;48.44
5500;BME280;2772;42.700;23.304;2023-07-13T10:15:55;95313.41;;;32.92;47.19
5500;BME280;2772;42.700;23.304;2023-07-13T10:18:23;95306.88;;;32.99;50.82
5500;BME280;2772;42.700;23.304;2023-07-13T10:20:54;95314.56;;;33.04;47.05
5500;BME280;2772;42.700;23.304;2023-07-13T10:23:33;95311.56;;;33.11;46.40
5500;BME280;2772;42.700;23.304;2023-07-13T10:26:00;95313.06;;;33.24;46.65
5500;BME280;2772;42.700;23.304;2023-07-13T10:28:31;95301.25;;;33.24;44.60
5500;BME280;2772;42.700;23.304;2023-07-13T10:31:01;95304.47;;;33.22;45.88
5500;BME280;2772;42.700;23.304;2023-07-13T10:33:29;95298.81;;;33.26;44.52
5500;BME280;2772;42.700;23.304;2023-07-13T10:36:05;95295.94;;;33.29;44.86
5500;BME280;2772;42.700;23.304;2023-07-13T10:38:39;95282.78;;;33.33;45.05
5500;BME280;2772;42.700;23.304;2023-07-13T10:41:10;95279.66;;;33.44;47.81
5500;BME280;2772;42.700;23.304;2023-07-13T10:43:42;95283.25;;;33.53;45.79
5500;BME280;2772;42.700;23.304;2023-07-13T10:46:11;95281.91;;;33.58;44.41
5500;BME280;2772;42.700;23.304;2023-07-13T10:48:42;95276.44;;;33.67;41.53
5500;BME280;2772;42.700;23.304;2023-07-13T10:51:14;95267.22;;;33.70;41.70
5500;BME280;2772;42.700;23.304;2023-07-13T10:53:41;95261.72;;;33.70;40.00
5500;BME280;2772;42.700;23.304;2023-07-13T10:56:22;95260.94;;;33.69;41.77
5500;BME280;2772;42.700;23.304;2023-07-13T10:59:09;95257.47;;;33.78;41.68
5500;BME280;2772;42.700;23.304;2023-07-13T11:01:41;95261.31;;;33.80;39.90
5500;BME280;2772;42.700;23.304;2023-07-13T11:04:13;95254.09;;;33.83;39.00
5500;BME280;2772;42.700;23.304;2023-07-13T11:06:43;95249.94;;;33.78;39.77
5500;BME280;2772;42.700;23.304;2023-07-13T11:09:37;95248.31;;;33.90;41.29
5500;BME280;2772;42.700;23.304;2023-07-13T11:12:10;95244.53;;;33.97;40.68
5500;BME280;2772;42.700;23.304;2023-07-13T11:15:10;95231.03;;;33.99;38.75
5500;BME280;2772;42.700;23.304;2023-07-13T11:17:47;95235.50;;;34.05;39.41
5500;BME280;2772;42.700;23.304;2023-07-13T11:20:35;95227.22;;;34.05;40.25
5500;BME280;2772;42.700;23.304;2023-07-13T11:23:27;95229.09;;;34.17;40.74
5500;BME280;2772;42.700;23.304;2023-07-13T11:25:55;95229.88;;;34.18;40.79
5500;BME280;2772;42.700;23.304;2023-07-13T11:28:25;95240.19;;;34.26;42.40
5500;BME280;2772;42.700;23.304;2023-07-13T11:31:14;95232.97;;;34.29;41.74
5500;BME280;2772;42.700;23.304;2023-07-13T11:33:53;95226.38;;;34.35;44.71
5500;BME280;2772;42.700;23.304;2023-07-13T11:36:24;95220.28;;;34.49;43.81
5500;BME280;2772;42.700;23.304;2023-07-13T11:39:00;95217.69;;;34.46;44.50
5500;BME280;2772;42.700;23.304;2023-07-13T11:41:30;95220.91;;;34.44;43.04
5500;BME280;2772;42.700;23.304;2023-07-13T11:44:06;95217.97;;;34.39;44.25
5500;BME280;2772;42.700;23.304;2023-07-13T11:46:34;95213.22;;;34.39;42.76
5500;BME280;2772;42.700;23.304;2023-07-13T11:49:00;95217.63;;;34.37;42.60
5500;BME280;2772;42.700;23.304;2023-07-13T11:51:29;95215.22;;;34.48;43.89
5500;BME280;2772;42.700;23.304;2023-07-13T11:54:04;95198.94;;;34.50;43.33
5500;BME280;2772;42.700;23.304;2023-07-13T11:56:32;95202.31;;;34.54;46.12
5500;BME280;2772;42.700;23.304;2023-07-13T11:59:04;95184.03;;;34.56;46.56
5500;BME280;2772;42.700;23.304;2023-07-13T12:01:33;95201.41;;;34.66;46.19
5500;BME280;2772;42.700;23.304;2023-07-13T12:04:02;95193.72;;;34.70;45.28
5500;BME280;2772;42.700;23.304;2023-07-13T12:06:33;95190.34;;;34.75;43.75
5500;BME280;2772;42.700;23.304;2023-07-13T12:09:10;95186.06;;;34.83;46.33
5500;BME280;2772;42.700;23.304;2023-07-13T12:11:40;95191.44;;;34.86;42.99
5500;BME280;2772;42.700;23.304;2023-07-13T12:14:13;95189.56;;;34.83;43.44
5500;BME280;2772;42.700;23.304;2023-07-13T12:16:42;95181.25;;;34.83;43.27
5500;BME280;2772;42.700;23.304;2023-07-13T12:19:17;95174.19;;;34.82;41.31
5500;BME280;2772;42.700;23.304;2023-07-13T12:21:46;95179.16;;;34.87;41.29
5500;BME280;2772;42.700;23.304;2023-07-13T12:24:19;95172.69;;;34.90;41.90
5500;BME280;2772;42.700;23.304;2023-07-13T12:26:51;95163.13;;;34.91;41.37
5500;BME280;2772;42.700;23.304;2023-07-13T12:29:18;95160.69;;;34.93;43.04
5500;BME280;2772;42.700;23.304;2023-07-13T12:31:47;95159.63;;;35.00;42.42
5500;BME280;2772;42.700;23.304;2023-07-13T12:34:17;95157.63;;;35.00;39.62
5500;BME280;2772;42.700;23.304;2023-07-13T12:36:47;95154.22;;;35.05;42.27
5500;BME280;2772;42.700;23.304;2023-07-13T12:39:18;95157.28;;;35.07;40.02
5500;BME280;2772;42.700;23.304;2023-07-13T12:41:46;95142.38;;;35.05;40.14
5500;BME280;2772;42.700;23.304;2023-07-13T12:44:16;95145.59;;;35.12;40.63
5500;BME280;2772;42.700;23.304;2023-07-13T12:46:58;95134.34;;;35.16;40.58
5500;BME280;2772;42.700;23.304;2023-07-13T12:49:29;95142.34;;;35.23;40.93
5500;BME280;2772;42.700;23.304;2023-07-13T12:51:59;95136.63;;;35.27;41.37
5500;BME280;2772;42.700;23.304;2023-07-13T12:54:29;95138.16;;;35.37;41.57
5500;BME280;2772;42.700;23.304;2023-07-13T12:56:58;95133.72;;;35.39;40.06
5500;BME280;2772;42.700;23.304;2023-07-13T12:59:31;95139.09;;;35.43;39.93
5500;BME280;2772;42.700;23.304;2023-07-13T13:02:02;95126.47;;;35.42;37.38
5500;BME280;2772;42.700;23.304;2023-07-13T13:04:30;95128.28;;;35.45;37.47
5500;BME280;2772;42.700;23.304;2023-07-13T13:07:05;95126.16;;;35.49;37.55
5500;BME280;2772;42.700;23.304;2023-07-13T13:09:33;95122.13;;;35.50;37.64
5500;BME280;2772;42.700;23.304;2023-07-13T13:12:00;95124.31;;;35.46;38.08
5500;BME280;2772;42.700;23.304;2023-07-13T13:14:29;95117.69;;;35.43;37.55
5500;BME280;2772;42.700;23.304;2023-07-13T13:16:55;95120.28;;;35.47;36.72